createdAt,value
2018-11-11T00:00:57.753Z,27.50
2018-11-11T00:05:59.915Z,28.77
2018-11-11T00:11:02.085Z,21.23
2018-11-11T00:16:04.732Z,29.00
2018-11-11T00:21:06.903Z,22.83
2018-11-11T00:26:09.066Z,24.23
2018-11-11T00:31:11.174Z,23.70
2018-11-11T00:36:13.333Z,22.20
2018-11-11T00:41:16.094Z,23.20
2018-11-11T00:46:18.233Z,19.43
2018-11-11T00:51:20.366Z,23.33
2018-11-11T00:56:22.525Z,21.50
2018-11-11T01:01:24.675Z,20.37
2018-11-11T01:06:26.848Z,18.20
2018-11-11T01:11:29.020Z,16.83
2018-11-11T01:16:31.116Z,19.20
2018-11-11T01:21:33.291Z,26.67
2018-11-11T01:26:35.650Z,24.27
2018-11-11T01:31:37.799Z,26.37
2018-11-11T01:36:39.936Z,20.17
2018-11-11T01:41:42.064Z,20.27
2018-11-11T01:46:44.190Z,23.77
2018-11-11T01:51:46.286Z,27.13
2018-11-11T01:56:48.399Z,29.80
2018-11-11T02:01:50.523Z,36.70
2018-11-11T02:06:52.606Z,27.20
2018-11-11T02:11:54.722Z,26.93
2018-11-11T02:16:56.816Z,31.37
2018-11-11T02:21:58.942Z,28.37
2018-11-11T02:27:01.099Z,27.27
2018-11-11T02:32:03.227Z,26.17
2018-11-11T02:37:05.744Z,34.23
2018-11-11T02:42:07.871Z,23.23
2018-11-11T02:47:10.007Z,29.90
2018-11-11T02:52:12.108Z,25.70
2018-11-11T02:57:14.228Z,24.50
2018-11-11T03:02:16.323Z,26.77
2018-11-11T03:07:18.439Z,28.13
2018-11-11T03:12:20.590Z,27.07
2018-11-11T03:17:22.711Z,27.27
2018-11-11T03:22:24.835Z,30.50
2018-11-11T03:27:26.968Z,32.57
2018-11-11T03:32:29.069Z,27.90
2018-11-11T03:37:31.175Z,33.37
2018-11-11T03:42:33.303Z,31.67
2018-11-11T03:47:35.386Z,26.43
2018-11-11T03:52:37.891Z,34.93
2018-11-11T03:57:40.082Z,32.13
2018-11-11T04:02:42.256Z,33.60
2018-11-11T04:07:44.409Z,31.53
2018-11-11T04:12:47.184Z,34.57
2018-11-11T04:17:49.279Z,31.20
2018-11-11T04:22:51.514Z,31.03
2018-11-11T04:27:53.639Z,29.20
2018-11-11T04:32:55.749Z,32.30
2018-11-11T04:37:57.833Z,39.30
2018-11-11T04:42:59.952Z,36.30
2018-11-11T04:48:02.054Z,28.87
2018-11-11T04:53:04.299Z,47.53
2018-11-11T04:58:06.406Z,34.83
2018-11-11T05:03:08.546Z,30.13
2018-11-11T05:08:10.618Z,35.00
2018-11-11T05:13:12.745Z,27.73
2018-11-11T05:18:14.875Z,34.87
2018-11-11T05:23:16.999Z,38.13
2018-11-11T05:28:19.135Z,44.37
2018-11-11T05:33:21.223Z,30.80
2018-11-11T05:38:23.322Z,28.00
2018-11-11T05:43:25.439Z,30.03
2018-11-11T05:48:27.560Z,31.03
2018-11-11T05:53:29.673Z,37.87
2018-11-11T05:58:31.829Z,25.80
2018-11-11T06:03:34.130Z,32.50
2018-11-11T06:08:36.242Z,31.77
2018-11-11T06:13:38.369Z,33.70
2018-11-11T06:18:40.465Z,24.97
2018-11-11T06:23:42.603Z,24.73
2018-11-11T06:28:44.718Z,27.23
2018-11-11T06:33:46.836Z,23.13
2018-11-11T06:38:48.934Z,29.10
2018-11-11T06:43:51.028Z,18.83
2018-11-11T06:48:53.168Z,27.73
2018-11-11T06:53:55.307Z,19.10
2018-11-11T06:58:57.419Z,21.90
2018-11-11T07:04:00.670Z,25.65
2018-11-11T07:09:04.273Z,20.57
2018-11-11T07:14:06.431Z,22.63
2018-11-11T07:19:08.519Z,15.40
2018-11-11T07:24:10.727Z,19.67
2018-11-11T07:29:12.915Z,20.70
2018-11-11T07:34:15.057Z,18.70
2018-11-11T07:39:17.176Z,18.30
2018-11-11T07:44:19.343Z,14.70
2018-11-11T07:49:21.447Z,19.00
2018-11-11T07:54:23.581Z,17.83
2018-11-11T07:59:25.708Z,16.27
2018-11-11T08:04:27.806Z,15.20
2018-11-11T08:09:29.906Z,17.40
2018-11-11T08:14:32.028Z,22.63
2018-11-11T08:19:34.157Z,19.87
2018-11-11T08:24:36.560Z,20.30
2018-11-11T08:29:38.711Z,18.33
2018-11-11T08:34:40.802Z,15.70
2018-11-11T08:39:42.908Z,14.50
2018-11-11T08:44:45.027Z,16.30
2018-11-11T08:49:47.156Z,14.27
2018-11-11T08:54:49.267Z,16.57
2018-11-11T08:59:51.383Z,17.33
2018-11-11T09:04:53.559Z,16.53
2018-11-11T09:09:55.696Z,17.43
2018-11-11T09:14:57.886Z,14.13
2018-11-11T09:20:00.083Z,21.13
2018-11-11T09:25:02.237Z,20.30
2018-11-11T09:30:06.704Z,15.27
2018-11-11T09:35:09.280Z,12.53
2018-11-11T09:40:12.400Z,15.90
2018-11-11T09:45:15.304Z,12.97
2018-11-11T09:50:17.493Z,14.93
2018-11-11T09:55:19.570Z,14.67
2018-11-11T10:00:22.284Z,12.03
2018-11-11T10:05:28.033Z,12.30
2018-11-11T10:10:35.864Z,9.67
2018-11-11T10:16:13.821Z,11.40
2018-11-11T10:23:29.391Z,13.67
2018-11-11T10:28:37.276Z,10.07
2018-11-11T10:33:49.402Z,9.70
2018-11-11T10:39:01.912Z,13.53
2018-11-11T10:44:25.711Z,9.40
2018-11-11T10:49:37.100Z,9.80
2018-11-11T10:54:39.513Z,12.10
2018-11-11T10:59:41.691Z,11.10
2018-11-11T11:04:49.639Z,12.73
2018-11-11T11:09:51.780Z,11.70
2018-11-11T11:14:53.943Z,11.83
2018-11-11T11:19:56.086Z,10.13
2018-11-11T11:24:58.245Z,12.70
2018-11-11T11:30:00.419Z,11.83
2018-11-11T11:35:03.162Z,12.30
2018-11-11T11:40:06.048Z,9.93
2018-11-11T11:45:09.416Z,10.73
2018-11-11T11:50:12.593Z,8.40
2018-11-11T11:55:14.816Z,14.07
2018-11-11T12:00:16.952Z,9.47
2018-11-11T12:05:19.137Z,8.83
2018-11-11T12:10:21.316Z,14.63
2018-11-11T12:15:23.481Z,11.23
2018-11-11T12:20:25.668Z,11.27
2018-11-11T12:25:27.823Z,7.67
2018-11-11T12:30:30.125Z,7.47
2018-11-11T12:35:32.283Z,8.33
2018-11-11T12:40:34.429Z,4.60
2018-11-11T12:45:36.618Z,9.00
2018-11-11T12:50:38.813Z,6.83
2018-11-11T12:55:40.961Z,5.10
2018-11-11T13:00:43.150Z,9.20
2018-11-11T13:05:45.274Z,7.20
2018-11-11T13:10:47.391Z,3.83
2018-11-11T13:15:49.532Z,7.33
2018-11-11T13:20:51.750Z,8.47
2018-11-11T13:25:53.904Z,9.07
2018-11-11T13:30:56.101Z,6.80
2018-11-11T13:35:58.352Z,12.50
2018-11-11T13:41:00.508Z,7.00
2018-11-11T13:46:02.688Z,8.90
2018-11-11T13:51:04.872Z,10.83
2018-11-11T13:56:07.039Z,8.43
2018-11-11T14:01:09.235Z,8.70
2018-11-11T14:06:11.390Z,4.00
2018-11-11T14:11:13.624Z,7.67
2018-11-11T14:16:15.805Z,6.13
2018-11-11T14:21:17.984Z,4.50
2018-11-11T14:26:20.213Z,6.77
2018-11-11T14:31:22.340Z,4.70
2018-11-11T14:36:24.532Z,5.73
2018-11-11T14:41:26.820Z,7.17
2018-11-11T14:46:29.001Z,7.30
2018-11-11T14:51:31.455Z,6.70
2018-11-11T14:56:33.689Z,3.73
2018-11-11T15:01:35.966Z,3.10
2018-11-11T15:06:38.138Z,9.63
2018-11-11T15:11:40.892Z,4.30
2018-11-11T15:16:43.057Z,6.93
2018-11-11T15:21:45.256Z,7.43
2018-11-11T15:26:47.400Z,5.63
2018-11-11T15:31:49.616Z,4.33
2018-11-11T15:36:51.818Z,10.83
2018-11-11T15:41:53.992Z,6.83
2018-11-11T15:46:56.151Z,6.57
2018-11-11T15:51:58.351Z,4.93
2018-11-11T15:57:00.517Z,6.00
2018-11-11T16:02:02.764Z,4.30
2018-11-11T16:07:05.122Z,6.50
2018-11-11T16:12:07.328Z,4.83
2018-11-11T16:17:09.510Z,3.53
2018-11-11T16:22:11.695Z,5.20
2018-11-11T16:27:13.867Z,2.60
2018-11-11T16:32:16.100Z,3.10
2018-11-11T16:37:18.315Z,3.70
2018-11-11T16:42:20.730Z,6.10
2018-11-11T16:47:22.882Z,3.33
2018-11-11T16:52:24.986Z,5.80
2018-11-11T16:57:27.114Z,2.60
2018-11-11T17:02:29.655Z,2.87
2018-11-11T17:07:31.811Z,4.70
2018-11-11T17:12:33.990Z,5.07
2018-11-11T17:17:36.357Z,3.17
2018-11-11T17:22:38.690Z,10.87
2018-11-11T17:27:41.049Z,4.97
2018-11-11T17:32:43.995Z,6.30
2018-11-11T17:37:46.451Z,2.80
2018-11-11T17:42:49.566Z,5.23
2018-11-11T17:47:52.568Z,4.47
2018-11-11T17:52:54.771Z,5.40
2018-11-11T17:57:57.144Z,6.43
2018-11-11T18:03:00.181Z,8.40
2018-11-11T18:08:02.717Z,3.63
2018-11-11T18:13:05.501Z,7.23
2018-11-11T18:18:07.861Z,14.17
2018-11-11T18:23:10.733Z,4.90
2018-11-11T18:28:13.314Z,7.57
2018-11-11T18:33:16.739Z,3.60
2018-11-11T18:38:21.013Z,3.00
2018-11-11T18:43:25.362Z,13.50
2018-11-11T18:48:27.949Z,5.03
2018-11-11T18:53:31.659Z,3.63
2018-11-11T18:58:34.548Z,6.43
2018-11-11T19:03:37.520Z,7.90
2018-11-11T19:08:40.275Z,7.50
2018-11-11T19:13:43.751Z,4.20
2018-11-11T19:18:47.946Z,7.07
2018-11-11T19:23:52.282Z,7.40
2018-11-11T19:28:55.132Z,8.63
2018-11-11T19:33:58.910Z,5.90
2018-11-11T19:39:04.777Z,4.97
2018-11-11T19:44:09.092Z,4.27
2018-11-11T19:49:13.806Z,10.43
2018-11-11T19:54:19.814Z,5.37
2018-11-11T19:59:23.654Z,7.03
2018-11-11T20:04:28.381Z,5.30
2018-11-11T20:09:33.569Z,5.27
2018-11-11T20:14:37.871Z,5.07
2018-11-11T20:19:41.145Z,5.87
2018-11-11T20:24:44.961Z,8.60
2018-11-11T20:29:48.421Z,5.20
2018-11-11T20:34:52.587Z,5.50
2018-11-11T20:39:56.246Z,4.63
2018-11-11T20:45:00.149Z,6.07
2018-11-11T20:50:03.657Z,14.10
2018-11-11T20:55:07.881Z,12.00
2018-11-11T21:00:14.228Z,5.47
2018-11-11T21:05:19.801Z,7.17
2018-11-11T21:10:24.042Z,16.50
2018-11-11T21:15:27.540Z,8.00
2018-11-11T21:20:31.242Z,7.27
2018-11-11T21:25:34.820Z,9.37
2018-11-11T21:30:37.045Z,10.00
2018-11-11T21:35:40.606Z,9.27
2018-11-11T21:40:42.855Z,8.90
2018-11-11T21:45:45.122Z,10.70
2018-11-11T21:50:47.394Z,8.97
2018-11-11T21:55:49.857Z,6.00
2018-11-11T22:00:52.383Z,8.20
2018-11-11T22:05:54.915Z,11.17
2018-11-11T22:10:57.143Z,9.00
2018-11-11T22:16:00.419Z,10.20
2018-11-11T22:21:02.508Z,8.63
2018-11-11T22:26:05.552Z,10.63
2018-11-11T22:31:08.604Z,8.57
2018-11-11T22:36:10.823Z,8.27
2018-11-11T22:41:13.029Z,8.00
2018-11-11T22:46:15.194Z,9.90
2018-11-11T22:51:17.380Z,11.40
2018-11-11T22:56:19.527Z,12.03
2018-11-11T23:01:21.973Z,17.10
2018-11-11T23:06:24.020Z,13.27
2018-11-11T23:11:26.158Z,7.90
2018-11-11T23:16:28.286Z,6.30
2018-11-11T23:21:30.447Z,23.10
2018-11-11T23:26:32.590Z,9.97
2018-11-11T23:31:34.746Z,9.07
2018-11-11T23:36:36.864Z,13.08
2018-11-11T23:41:39.033Z,16.57
2018-11-11T23:46:41.167Z,9.10
2018-11-11T23:51:43.321Z,18.20
2018-11-11T23:56:46.043Z,13.17
